sensor_id;sensor_type;location;lat;lon;timestamp;temperature;humidity
3198;DHT22;1611;49.394;11.136;2022-10-22T00:01:57;14.20;78.60
3198;DHT22;1611;49.394;11.136;2022-10-22T00:04:24;14.20;78.70
3198;DHT22;1611;49.394;11.136;2022-10-22T00:06:51;14.20;78.60
3198;DHT22;1611;49.394;11.136;2022-10-22T00:09:18;14.20;78.60
3198;DHT22;1611;49.394;11.136;2022-10-22T00:11:46;14.20;78.60
3198;DHT22;1611;49.394;11.136;2022-10-22T00:14:13;14.20;78.60
3198;DHT22;1611;49.394;11.136;2022-10-22T00:16:40;14.20;78.70
3198;DHT22;1611;49.394;11.136;2022-10-22T00:19:07;14.20;79.00
3198;DHT22;1611;49.394;11.136;2022-10-22T00:21:35;14.20;78.60
3198;DHT22;1611;49.394;11.136;2022-10-22T00:24:02;14.20;78.70
3198;DHT22;1611;49.394;11.136;2022-10-22T00:26:29;14.20;78.50
3198;DHT22;1611;49.394;11.136;2022-10-22T00:28:57;14.30;78.50
3198;DHT22;1611;49.394;11.136;2022-10-22T00:31:24;14.20;78.50
3198;DHT22;1611;49.394;11.136;2022-10-22T00:33:51;14.20;78.40
3198;DHT22;1611;49.394;11.136;2022-10-22T00:36:17;14.30;78.20
3198;DHT22;1611;49.394;11.136;2022-10-22T00:38:44;14.20;78.20
3198;DHT22;1611;49.394;11.136;2022-10-22T00:41:11;14.30;78.40
3198;DHT22;1611;49.394;11.136;2022-10-22T00:43:55;14.20;78.30
3198;DHT22;1611;49.394;11.136;2022-10-22T00:46:24;14.30;78.20
3198;DHT22;1611;49.394;11.136;2022-10-22T00:48:52;14.20;78.30
3198;DHT22;1611;49.394;11.136;2022-10-22T00:51:21;14.20;78.60
3198;DHT22;1611;49.394;11.136;2022-10-22T00:53:51;14.30;78.70
3198;DHT22;1611;49.394;11.136;2022-10-22T00:56:21;14.30;78.40
3198;DHT22;1611;49.394;11.136;2022-10-22T00:58:50;14.20;78.70
3198;DHT22;1611;49.394;11.136;2022-10-22T01:01:20;14.20;78.70
3198;DHT22;1611;49.394;11.136;2022-10-22T01:03:50;14.20;78.60
3198;DHT22;1611;49.394;11.136;2022-10-22T01:06:21;14.20;78.60
3198;DHT22;1611;49.394;11.136;2022-10-22T01:08:54;14.30;78.50
3198;DHT22;1611;49.394;11.136;2022-10-22T01:11:25;14.30;78.60
3198;DHT22;1611;49.394;11.136;2022-10-22T01:13:58;14.30;78.70
3198;DHT22;1611;49.394;11.136;2022-10-22T01:16:36;14.30;78.60
3198;DHT22;1611;49.394;11.136;2022-10-22T01:19:19;14.20;78.70
3198;DHT22;1611;49.394;11.136;2022-10-22T01:21:52;14.20;78.80
3198;DHT22;1611;49.394;11.136;2022-10-22T01:24:33;14.20;79.30
3198;DHT22;1611;49.394;11.136;2022-10-22T01:27:20;14.20;79.00
3198;DHT22;1611;49.394;11.136;2022-10-22T01:29:53;14.20;79.20
3198;DHT22;1611;49.394;11.136;2022-10-22T01:32:22;14.20;79.40
3198;DHT22;1611;49.394;11.136;2022-10-22T01:34:54;14.20;79.30
3198;DHT22;1611;49.394;11.136;2022-10-22T01:37:24;14.20;79.30
3198;DHT22;1611;49.394;11.136;2022-10-22T01:39:53;14.20;79.50
3198;DHT22;1611;49.394;11.136;2022-10-22T01:42:20;14.20;79.60
3198;DHT22;1611;49.394;11.136;2022-10-22T01:44:46;14.20;79.60
3198;DHT22;1611;49.394;11.136;2022-10-22T01:47:23;14.20;79.90
3198;DHT22;1611;49.394;11.136;2022-10-22T01:50:13;14.20;80.00
3198;DHT22;1611;49.394;11.136;2022-10-22T01:52:59;14.20;80.10
3198;DHT22;1611;49.394;11.136;2022-10-22T01:55:29;14.10;80.50
3198;DHT22;1611;49.394;11.136;2022-10-22T01:58:08;14.10;80.70
3198;DHT22;1611;49.394;11.136;2022-10-22T02:00:44;14.20;80.40
3198;DHT22;1611;49.394;11.136;2022-10-22T02:03:19;14.20;80.50
3198;DHT22;1611;49.394;11.136;2022-10-22T02:05:49;14.20;80.30
3198;DHT22;1611;49.394;11.136;2022-10-22T02:08:19;14.20;80.20
3198;DHT22;1611;49.394;11.136;2022-10-22T02:10:47;14.20;79.90
3198;DHT22;1611;49.394;11.136;2022-10-22T02:13:17;14.20;80.10
3198;DHT22;1611;49.394;11.136;2022-10-22T02:15:45;14.10;80.00
3198;DHT22;1611;49.394;11.136;2022-10-22T02:18:14;14.10;80.10
3198;DHT22;1611;49.394;11.136;2022-10-22T02:20:43;14.20;80.40
3198;DHT22;1611;49.394;11.136;2022-10-22T02:23:10;14.20;80.20
3198;DHT22;1611;49.394;11.136;2022-10-22T02:25:40;14.20;79.90
3198;DHT22;1611;49.394;11.136;2022-10-22T02:28:12;14.20;79.50
3198;DHT22;1611;49.394;11.136;2022-10-22T02:30:45;14.20;79.40
3198;DHT22;1611;49.394;11.136;2022-10-22T02:33:18;14.20;79.30
3198;DHT22;1611;49.394;11.136;2022-10-22T02:35:48;14.20;79.50
3198;DHT22;1611;49.394;11.136;2022-10-22T02:38:18;14.20;79.30
3198;DHT22;1611;49.394;11.136;2022-10-22T02:40:45;14.20;79.40
3198;DHT22;1611;49.394;11.136;2022-10-22T02:43:12;14.20;79.00
3198;DHT22;1611;49.394;11.136;2022-10-22T02:45:39;14.20;79.00
3198;DHT22;1611;49.394;11.136;2022-10-22T02:48:06;14.20;79.30
3198;DHT22;1611;49.394;11.136;2022-10-22T02:50:34;14.20;79.30
3198;DHT22;1611;49.394;11.136;2022-10-22T02:53:01;14.20;79.30
3198;DHT22;1611;49.394;11.136;2022-10-22T02:55:28;14.10;79.40
3198;DHT22;1611;49.394;11.136;2022-10-22T02:57:54;14.20;79.60
3198;DHT22;1611;49.394;11.136;2022-10-22T03:00:21;14.20;79.80
3198;DHT22;1611;49.394;11.136;2022-10-22T03:02:48;14.20;79.70
3198;DHT22;1611;49.394;11.136;2022-10-22T03:05:15;14.20;79.30
3198;DHT22;1611;49.394;11.136;2022-10-22T03:07:43;14.20;79.20
3198;DHT22;1611;49.394;11.136;2022-10-22T03:10:10;14.20;79.00
3198;DHT22;1611;49.394;11.136;2022-10-22T03:12:36;14.20;79.30
3198;DHT22;1611;49.394;11.136;2022-10-22T03:15:04;14.20;79.00
3198;DHT22;1611;49.394;11.136;2022-10-22T03:17:31;14.20;79.40
3198;DHT22;1611;49.394;11.136;2022-10-22T03:19:57;14.20;79.50
3198;DHT22;1611;49.394;11.136;2022-10-22T03:22:27;14.10;79.40
3198;DHT22;1611;49.394;11.136;2022-10-22T03:24:58;14.20;79.70
3198;DHT22;1611;49.394;11.136;2022-10-22T03:27:27;14.10;79.50
3198;DHT22;1611;49.394;11.136;2022-10-22T03:29:54;14.20;79.50
3198;DHT22;1611;49.394;11.136;2022-10-22T03:32:22;14.20;79.50
3198;DHT22;1611;49.394;11.136;2022-10-22T03:34:49;14.20;79.10
3198;DHT22;1611;49.394;11.136;2022-10-22T03:37:16;14.20;79.10
3198;DHT22;1611;49.394;11.136;2022-10-22T03:39:43;14.20;78.80
3198;DHT22;1611;49.394;11.136;2022-10-22T03:42:11;14.20;78.90
3198;DHT22;1611;49.394;11.136;2022-10-22T03:44:39;14.10;79.00
3198;DHT22;1611;49.394;11.136;2022-10-22T03:47:06;14.20;79.00
3198;DHT22;1611;49.394;11.136;2022-10-22T03:49:33;14.10;78.90
3198;DHT22;1611;49.394;11.136;2022-10-22T03:52:05;14.10;78.80
3198;DHT22;1611;49.394;11.136;2022-10-22T03:54:31;14.10;78.70
3198;DHT22;1611;49.394;11.136;2022-10-22T03:56:58;14.10;79.00
3198;DHT22;1611;49.394;11.136;2022-10-22T03:59:26;14.10;78.90
3198;DHT22;1611;49.394;11.136;2022-10-22T04:01:53;14.10;78.80
3198;DHT22;1611;49.394;11.136;2022-10-22T04:04:20;14.10;78.70
3198;DHT22;1611;49.394;11.136;2022-10-22T04:06:47;14.10;78.90
3198;DHT22;1611;49.394;11.136;2022-10-22T04:09:14;14.10;78.80
3198;DHT22;1611;49.394;11.136;2022-10-22T04:11:40;14.10;79.00
3198;DHT22;1611;49.394;11.136;2022-10-22T04:14:07;14.10;79.10
3198;DHT22;1611;49.394;11.136;2022-10-22T04:16:35;14.10;78.80
3198;DHT22;1611;49.394;11.136;2022-10-22T04:19:02;14.00;79.00
3198;DHT22;1611;49.394;11.136;2022-10-22T04:21:29;14.10;79.20
3198;DHT22;1611;49.394;11.136;2022-10-22T04:23:56;14.00;79.00
3198;DHT22;1611;49.394;11.136;2022-10-22T04:26:23;14.00;79.00
3198;DHT22;1611;49.394;11.136;2022-10-22T04:28:51;14.00;78.90
3198;DHT22;1611;49.394;11.136;2022-10-22T04:31:20;14.00;79.90
3198;DHT22;1611;49.394;11.136;2022-10-22T04:33:52;14.00;78.70
3198;DHT22;1611;49.394;11.136;2022-10-22T04:36:20;14.00;79.10
3198;DHT22;1611;49.394;11.136;2022-10-22T04:38:52;14.00;79.10
3198;DHT22;1611;49.394;11.136;2022-10-22T04:41:21;14.10;79.10
3198;DHT22;1611;49.394;11.136;2022-10-22T04:43:48;14.00;78.90
3198;DHT22;1611;49.394;11.136;2022-10-22T04:46:17;14.10;79.00
3198;DHT22;1611;49.394;11.136;2022-10-22T04:48:44;14.10;78.70
3198;DHT22;1611;49.394;11.136;2022-10-22T04:51:15;14.10;78.50
3198;DHT22;1611;49.394;11.136;2022-10-22T04:53:42;14.10;78.40
3198;DHT22;1611;49.394;11.136;2022-10-22T04:56:11;14.10;78.60
3198;DHT22;1611;49.394;11.136;2022-10-22T04:58:42;14.00;78.40
3198;DHT22;1611;49.394;11.136;2022-10-22T05:01:11;14.10;78.50
3198;DHT22;1611;49.394;11.136;2022-10-22T05:03:38;14.10;78.20
3198;DHT22;1611;49.394;11.136;2022-10-22T05:06:05;14.10;77.90
3198;DHT22;1611;49.394;11.136;2022-10-22T05:08:34;14.00;78.00
3198;DHT22;1611;49.394;11.136;2022-10-22T05:11:09;14.00;78.20
3198;DHT22;1611;49.394;11.136;2022-10-22T05:13:36;14.00;78.50
3198;DHT22;1611;49.394;11.136;2022-10-22T05:16:03;14.00;78.40
3198;DHT22;1611;49.394;11.136;2022-10-22T05:18:33;14.00;78.30
3198;DHT22;1611;49.394;11.136;2022-10-22T05:21:00;14.00;78.20
3198;DHT22;1611;49.394;11.136;2022-10-22T05:23:27;13.90;78.60
3198;DHT22;1611;49.394;11.136;2022-10-22T05:25:55;13.90;78.50
3198;DHT22;1611;49.394;11.136;2022-10-22T05:28:22;13.90;78.40
3198;DHT22;1611;49.394;11.136;2022-10-22T05:30:52;13.90;78.40
3198;DHT22;1611;49.394;11.136;2022-10-22T05:33:19;13.80;78.50
3198;DHT22;1611;49.394;11.136;2022-10-22T05:35:47;13.80;78.50
3198;DHT22;1611;49.394;11.136;2022-10-22T05:38:13;13.80;78.80
3198;DHT22;1611;49.394;11.136;2022-10-22T05:40:40;13.70;78.40
3198;DHT22;1611;49.394;11.136;2022-10-22T05:43:08;13.70;78.50
3198;DHT22;1611;49.394;11.136;2022-10-22T05:45:36;13.70;78.20
3198;DHT22;1611;49.394;11.136;2022-10-22T05:48:03;13.70;78.20
3198;DHT22;1611;49.394;11.136;2022-10-22T05:50:30;13.70;77.90
3198;DHT22;1611;49.394;11.136;2022-10-22T05:52:56;13.70;78.10
3198;DHT22;1611;49.394;11.136;2022-10-22T05:55:23;13.60;77.80
3198;DHT22;1611;49.394;11.136;2022-10-22T05:57:50;13.60;77.40
3198;DHT22;1611;49.394;11.136;2022-10-22T06:00:18;13.50;77.90
3198;DHT22;1611;49.394;11.136;2022-10-22T06:02:48;13.60;78.10
3198;DHT22;1611;49.394;11.136;2022-10-22T06:05:16;13.50;78.00
3198;DHT22;1611;49.394;11.136;2022-10-22T06:07:42;13.50;78.00
3198;DHT22;1611;49.394;11.136;2022-10-22T06:10:13;13.40;78.00
3198;DHT22;1611;49.394;11.136;2022-10-22T06:12:41;13.40;78.30
3198;DHT22;1611;49.394;11.136;2022-10-22T06:15:09;13.40;78.10
3198;DHT22;1611;49.394;11.136;2022-10-22T06:17:38;13.40;77.80
3198;DHT22;1611;49.394;11.136;2022-10-22T06:20:06;13.40;78.00
3198;DHT22;1611;49.394;11.136;2022-10-22T06:22:33;13.40;77.80
3198;DHT22;1611;49.394;11.136;2022-10-22T06:25:00;13.40;77.90
3198;DHT22;1611;49.394;11.136;2022-10-22T06:27:27;13.40;77.80
3198;DHT22;1611;49.394;11.136;2022-10-22T06:29:53;13.40;77.80
3198;DHT22;1611;49.394;11.136;2022-10-22T06:32:20;13.40;77.30
3198;DHT22;1611;49.394;11.136;2022-10-22T06:34:48;13.40;77.60
3198;DHT22;1611;49.394;11.136;2022-10-22T06:37:15;13.50;77.50
3198;DHT22;1611;49.394;11.136;2022-10-22T06:39:42;13.40;77.50
3198;DHT22;1611;49.394;11.136;2022-10-22T06:42:09;13.50;77.80
3198;DHT22;1611;49.394;11.136;2022-10-22T06:44:36;13.50;78.10
3198;DHT22;1611;49.394;11.136;2022-10-22T06:47:03;13.50;77.90
3198;DHT22;1611;49.394;11.136;2022-10-22T06:49:30;13.50;78.00
3198;DHT22;1611;49.394;11.136;2022-10-22T06:51:58;13.60;77.80
3198;DHT22;1611;49.394;11.136;2022-10-22T06:54:25;13.60;77.80
3198;DHT22;1611;49.394;11.136;2022-10-22T06:56:52;13.60;77.70
3198;DHT22;1611;49.394;11.136;2022-10-22T06:59:18;13.70;77.80
3198;DHT22;1611;49.394;11.136;2022-10-22T07:01:45;13.70;77.20
3198;DHT22;1611;49.394;11.136;2022-10-22T07:04:12;13.80;77.10
3198;DHT22;1611;49.394;11.136;2022-10-22T07:06:39;13.80;77.00
3198;DHT22;1611;49.394;11.136;2022-10-22T07:09:07;13.90;76.80
3198;DHT22;1611;49.394;11.136;2022-10-22T07:11:38;14.00;76.10
3198;DHT22;1611;49.394;11.136;2022-10-22T07:14:06;13.90;75.90
3198;DHT22;1611;49.394;11.136;2022-10-22T07:16:32;14.00;76.20
3198;DHT22;1611;49.394;11.136;2022-10-22T07:19:00;14.00;76.00
3198;DHT22;1611;49.394;11.136;2022-10-22T07:21:27;14.10;76.30
3198;DHT22;1611;49.394;11.136;2022-10-22T07:23:54;14.10;75.80
3198;DHT22;1611;49.394;11.136;2022-10-22T07:26:22;14.10;75.60
3198;DHT22;1611;49.394;11.136;2022-10-22T07:28:51;14.20;75.60
3198;DHT22;1611;49.394;11.136;2022-10-22T07:31:19;14.20;76.00
3198;DHT22;1611;49.394;11.136;2022-10-22T07:33:45;14.30;76.00
3198;DHT22;1611;49.394;11.136;2022-10-22T07:36:14;14.30;76.00
3198;DHT22;1611;49.394;11.136;2022-10-22T07:38:42;14.40;75.50
3198;DHT22;1611;49.394;11.136;2022-10-22T07:41:10;14.50;75.50
3198;DHT22;1611;49.394;11.136;2022-10-22T07:43:38;14.60;75.20
3198;DHT22;1611;49.394;11.136;2022-10-22T07:46:05;14.70;75.00
3198;DHT22;1611;49.394;11.136;2022-10-22T07:48:33;14.70;74.80
3198;DHT22;1611;49.394;11.136;2022-10-22T07:51:00;14.80;74.70
3198;DHT22;1611;49.394;11.136;2022-10-22T07:53:27;14.80;74.40
3198;DHT22;1611;49.394;11.136;2022-10-22T07:55:54;14.90;74.60
3198;DHT22;1611;49.394;11.136;2022-10-22T07:58:22;15.00;74.60
3198;DHT22;1611;49.394;11.136;2022-10-22T08:00:50;15.00;74.40
3198;DHT22;1611;49.394;11.136;2022-10-22T08:03:20;15.10;74.10
3198;DHT22;1611;49.394;11.136;2022-10-22T08:05:47;15.20;73.10
3198;DHT22;1611;49.394;11.136;2022-10-22T08:08:15;15.30;72.90
3198;DHT22;1611;49.394;11.136;2022-10-22T08:10:42;15.30;72.10
3198;DHT22;1611;49.394;11.136;2022-10-22T08:13:09;15.30;71.80
3198;DHT22;1611;49.394;11.136;2022-10-22T08:15:37;15.30;71.80
3198;DHT22;1611;49.394;11.136;2022-10-22T08:18:05;15.20;71.80
3198;DHT22;1611;49.394;11.136;2022-10-22T08:20:32;15.20;71.80
3198;DHT22;1611;49.394;11.136;2022-10-22T08:22:59;15.20;72.20
3198;DHT22;1611;49.394;11.136;2022-10-22T08:25:26;15.10;72.30
3198;DHT22;1611;49.394;11.136;2022-10-22T08:27:53;15.10;72.20
3198;DHT22;1611;49.394;11.136;2022-10-22T08:30:20;15.10;72.20
3198;DHT22;1611;49.394;11.136;2022-10-22T08:32:47;15.00;72.20
3198;DHT22;1611;49.394;11.136;2022-10-22T08:35:15;15.00;72.30
3198;DHT22;1611;49.394;11.136;2022-10-22T08:37:42;14.90;73.60
3198;DHT22;1611;49.394;11.136;2022-10-22T08:40:18;14.90;72.90
3198;DHT22;1611;49.394;11.136;2022-10-22T08:45:48;14.80;73.30
3198;DHT22;1611;49.394;11.136;2022-10-22T08:48:28;14.90;73.30
3198;DHT22;1611;49.394;11.136;2022-10-22T08:50:57;14.90;73.20
3198;DHT22;1611;49.394;11.136;2022-10-22T08:53:28;14.90;73.30
3198;DHT22;1611;49.394;11.136;2022-10-22T08:55:56;14.90;73.10
3198;DHT22;1611;49.394;11.136;2022-10-22T08:58:30;14.90;73.10
3198;DHT22;1611;49.394;11.136;2022-10-22T09:01:05;14.90;73.40
3198;DHT22;1611;49.394;11.136;2022-10-22T09:03:39;15.00;73.60
3198;DHT22;1611;49.394;11.136;2022-10-22T09:06:12;15.00;74.10
3198;DHT22;1611;49.394;11.136;2022-10-22T09:08:42;15.10;74.50
3198;DHT22;1611;49.394;11.136;2022-10-22T09:11:18;15.10;74.80
3198;DHT22;1611;49.394;11.136;2022-10-22T09:13:47;15.30;75.00
3198;DHT22;1611;49.394;11.136;2022-10-22T09:16:17;15.40;74.70
3198;DHT22;1611;49.394;11.136;2022-10-22T09:18:55;15.50;74.10
3198;DHT22;1611;49.394;11.136;2022-10-22T09:21:33;15.60;73.80
3198;DHT22;1611;49.394;11.136;2022-10-22T09:24:08;15.60;73.50
3198;DHT22;1611;49.394;11.136;2022-10-22T09:26:38;15.80;73.50
3198;DHT22;1611;49.394;11.136;2022-10-22T09:29:11;15.90;72.50
3198;DHT22;1611;49.394;11.136;2022-10-22T09:31:40;16.10;68.60
3198;DHT22;1611;49.394;11.136;2022-10-22T09:34:07;16.40;67.00
3198;DHT22;1611;49.394;11.136;2022-10-22T09:36:37;16.70;67.30
3198;DHT22;1611;49.394;11.136;2022-10-22T09:39:03;16.90;66.50
3198;DHT22;1611;49.394;11.136;2022-10-22T09:41:30;17.10;63.00
3198;DHT22;1611;49.394;11.136;2022-10-22T09:43:58;17.30;63.80
3198;DHT22;1611;49.394;11.136;2022-10-22T09:46:28;17.70;61.80
3198;DHT22;1611;49.394;11.136;2022-10-22T09:49:02;18.50;60.20
3198;DHT22;1611;49.394;11.136;2022-10-22T09:51:44;19.70;55.80
3198;DHT22;1611;49.394;11.136;2022-10-22T09:54:17;20.50;47.60
3198;DHT22;1611;49.394;11.136;2022-10-22T09:56:55;20.70;47.20
3198;DHT22;1611;49.394;11.136;2022-10-22T09:59:30;20.40;47.00
3198;DHT22;1611;49.394;11.136;2022-10-22T10:02:03;19.80;49.10
3198;DHT22;1611;49.394;11.136;2022-10-22T10:04:34;19.40;50.80
3198;DHT22;1611;49.394;11.136;2022-10-22T10:07:03;19.10;51.50
3198;DHT22;1611;49.394;11.136;2022-10-22T10:09:30;18.80;53.40
3198;DHT22;1611;49.394;11.136;2022-10-22T10:12:06;18.40;55.70
3198;DHT22;1611;49.394;11.136;2022-10-22T10:14:38;18.00;56.00
3198;DHT22;1611;49.394;11.136;2022-10-22T10:17:15;17.90;56.40
3198;DHT22;1611;49.394;11.136;2022-10-22T10:19:51;17.80;56.30
3198;DHT22;1611;49.394;11.136;2022-10-22T10:22:34;17.70;56.90
3198;DHT22;1611;49.394;11.136;2022-10-22T10:25:25;17.90;55.10
3198;DHT22;1611;49.394;11.136;2022-10-22T10:28:00;18.20;53.70
3198;DHT22;1611;49.394;11.136;2022-10-22T10:30:30;18.10;54.20
3198;DHT22;1611;49.394;11.136;2022-10-22T10:33:08;18.20;53.30
3198;DHT22;1611;49.394;11.136;2022-10-22T10:35:44;18.20;53.50
3198;DHT22;1611;49.394;11.136;2022-10-22T10:38:25;18.50;53.50
3198;DHT22;1611;49.394;11.136;2022-10-22T10:41:01;18.50;50.50
3198;DHT22;1611;49.394;11.136;2022-10-22T10:43:37;18.60;51.70
3198;DHT22;1611;49.394;11.136;2022-10-22T10:46:13;18.40;49.00
3198;DHT22;1611;49.394;11.136;2022-10-22T10:48:48;18.40;50.60
3198;DHT22;1611;49.394;11.136;2022-10-22T10:51:27;18.40;49.60
3198;DHT22;1611;49.394;11.136;2022-10-22T10:54:06;18.40;53.20
3198;DHT22;1611;49.394;11.136;2022-10-22T10:56:40;18.20;54.70
3198;DHT22;1611;49.394;11.136;2022-10-22T10:59:15;18.10;53.00
3198;DHT22;1611;49.394;11.136;2022-10-22T11:02:00;17.80;53.00
3198;DHT22;1611;49.394;11.136;2022-10-22T11:04:58;17.60;52.10
3198;DHT22;1611;49.394;11.136;2022-10-22T11:07:33;17.30;53.00
3198;DHT22;1611;49.394;11.136;2022-10-22T11:10:07;17.30;56.60
3198;DHT22;1611;49.394;11.136;2022-10-22T11:12:40;17.40;54.90
3198;DHT22;1611;49.394;11.136;2022-10-22T11:15:14;17.60;55.00
3198;DHT22;1611;49.394;11.136;2022-10-22T11:17:45;17.80;57.00
3198;DHT22;1611;49.394;11.136;2022-10-22T11:20:17;18.10;57.40
3198;DHT22;1611;49.394;11.136;2022-10-22T11:22:49;18.30;53.30
3198;DHT22;1611;49.394;11.136;2022-10-22T11:25:21;18.40;52.10
3198;DHT22;1611;49.394;11.136;2022-10-22T11:27:55;18.30;51.30
3198;DHT22;1611;49.394;11.136;2022-10-22T11:30:25;18.50;53.50
3198;DHT22;1611;49.394;11.136;2022-10-22T11:32:56;18.60;53.70
3198;DHT22;1611;49.394;11.136;2022-10-22T11:35:25;18.70;51.70
3198;DHT22;1611;49.394;11.136;2022-10-22T11:37:54;18.70;48.30
3198;DHT22;1611;49.394;11.136;2022-10-22T11:40:32;18.80;49.20
3198;DHT22;1611;49.394;11.136;2022-10-22T11:43:04;19.00;50.60
3198;DHT22;1611;49.394;11.136;2022-10-22T11:45:34;19.00;50.90
3198;DHT22;1611;49.394;11.136;2022-10-22T11:48:11;18.80;49.40
3198;DHT22;1611;49.394;11.136;2022-10-22T11:50:46;18.70;52.20
3198;DHT22;1611;49.394;11.136;2022-10-22T11:53:19;18.50;53.40
3198;DHT22;1611;49.394;11.136;2022-10-22T11:55:49;18.30;50.20
3198;DHT22;1611;49.394;11.136;2022-10-22T11:58:34;18.30;53.40
3198;DHT22;1611;49.394;11.136;2022-10-22T12:01:24;18.40;53.60
3198;DHT22;1611;49.394;11.136;2022-10-22T12:03:52;18.80;52.90
3198;DHT22;1611;49.394;11.136;2022-10-22T12:06:23;19.10;48.60
3198;DHT22;1611;49.394;11.136;2022-10-22T12:08:55;19.20;47.80
3198;DHT22;1611;49.394;11.136;2022-10-22T12:11:27;19.10;44.70
3198;DHT22;1611;49.394;11.136;2022-10-22T12:14:03;19.10;46.20
3198;DHT22;1611;49.394;11.136;2022-10-22T12:16:39;19.10;47.30
3198;DHT22;1611;49.394;11.136;2022-10-22T12:19:12;19.30;46.80
3198;DHT22;1611;49.394;11.136;2022-10-22T12:21:42;19.40;46.40
3198;DHT22;1611;49.394;11.136;2022-10-22T12:24:12;19.30;43.60
3198;DHT22;1611;49.394;11.136;2022-10-22T12:26:41;19.20;45.00
3198;DHT22;1611;49.394;11.136;2022-10-22T12:29:12;19.20;45.50
3198;DHT22;1611;49.394;11.136;2022-10-22T12:31:41;19.10;46.10
3198;DHT22;1611;49.394;11.136;2022-10-22T12:34:13;19.00;48.60
3198;DHT22;1611;49.394;11.136;2022-10-22T12:36:41;19.10;49.30
3198;DHT22;1611;49.394;11.136;2022-10-22T12:39:13;19.00;47.60
3198;DHT22;1611;49.394;11.136;2022-10-22T12:41:42;18.90;49.60
3198;DHT22;1611;49.394;11.136;2022-10-22T12:44:11;18.70;50.90
3198;DHT22;1611;49.394;11.136;2022-10-22T12:46:39;18.80;50.00
3198;DHT22;1611;49.394;11.136;2022-10-22T12:49:13;18.80;47.30
3198;DHT22;1611;49.394;11.136;2022-10-22T12:51:40;18.80;49.40
3198;DHT22;1611;49.394;11.136;2022-10-22T12:54:12;19.00;50.20
3198;DHT22;1611;49.394;11.136;2022-10-22T12:56:42;19.60;47.00
3198;DHT22;1611;49.394;11.136;2022-10-22T12:59:15;20.10;44.00
3198;DHT22;1611;49.394;11.136;2022-10-22T13:01:43;20.10;41.40
3198;DHT22;1611;49.394;11.136;2022-10-22T13:04:31;19.90;46.30
3198;DHT22;1611;49.394;11.136;2022-10-22T13:07:17;19.80;47.50
3198;DHT22;1611;49.394;11.136;2022-10-22T13:09:46;19.50;48.80
3198;DHT22;1611;49.394;11.136;2022-10-22T13:12:23;19.20;49.40
3198;DHT22;1611;49.394;11.136;2022-10-22T13:14:50;19.00;50.70
3198;DHT22;1611;49.394;11.136;2022-10-22T13:17:19;18.60;52.20
3198;DHT22;1611;49.394;11.136;2022-10-22T13:19:58;18.50;52.70
3198;DHT22;1611;49.394;11.136;2022-10-22T13:22:32;18.40;53.10
3198;DHT22;1611;49.394;11.136;2022-10-22T13:25:17;18.20;53.40
3198;DHT22;1611;49.394;11.136;2022-10-22T13:27:48;18.10;54.30
3198;DHT22;1611;49.394;11.136;2022-10-22T13:30:20;18.00;55.10
3198;DHT22;1611;49.394;11.136;2022-10-22T13:32:55;17.90;56.10
3198;DHT22;1611;49.394;11.136;2022-10-22T13:35:24;17.80;56.40
3198;DHT22;1611;49.394;11.136;2022-10-22T13:37:52;17.60;56.10
3198;DHT22;1611;49.394;11.136;2022-10-22T13:40:19;17.60;57.60
3198;DHT22;1611;49.394;11.136;2022-10-22T13:42:48;17.50;58.70
3198;DHT22;1611;49.394;11.136;2022-10-22T13:45:15;17.40;60.00
3198;DHT22;1611;49.394;11.136;2022-10-22T13:47:46;17.30;60.40
3198;DHT22;1611;49.394;11.136;2022-10-22T13:50:15;17.20;60.20
3198;DHT22;1611;49.394;11.136;2022-10-22T13:52:44;17.20;60.50
3198;DHT22;1611;49.394;11.136;2022-10-22T13:55:17;17.10;60.10
3198;DHT22;1611;49.394;11.136;2022-10-22T13:57:45;17.00;60.60
3198;DHT22;1611;49.394;11.136;2022-10-22T14:00:16;16.90;60.70
3198;DHT22;1611;49.394;11.136;2022-10-22T14:02:46;16.90;61.20
3198;DHT22;1611;49.394;11.136;2022-10-22T14:05:14;16.80;62.60
3198;DHT22;1611;49.394;11.136;2022-10-22T14:07:42;16.80;62.40
3198;DHT22;1611;49.394;11.136;2022-10-22T14:10:13;16.90;62.40
3198;DHT22;1611;49.394;11.136;2022-10-22T14:12:41;16.90;61.70
3198;DHT22;1611;49.394;11.136;2022-10-22T14:15:10;16.90;62.10
3198;DHT22;1611;49.394;11.136;2022-10-22T14:17:40;16.90;62.20
3198;DHT22;1611;49.394;11.136;2022-10-22T14:20:13;17.00;62.00
3198;DHT22;1611;49.394;11.136;2022-10-22T14:22:41;17.00;61.40
3198;DHT22;1611;49.394;11.136;2022-10-22T14:25:10;17.00;61.40
3198;DHT22;1611;49.394;11.136;2022-10-22T14:27:39;16.90;61.20
3198;DHT22;1611;49.394;11.136;2022-10-22T14:30:06;16.90;56.80
3198;DHT22;1611;49.394;11.136;2022-10-22T14:32:33;16.90;57.30
3198;DHT22;1611;49.394;11.136;2022-10-22T14:35:02;16.90;52.80
3198;DHT22;1611;49.394;11.136;2022-10-22T14:37:29;17.00;57.60
3198;DHT22;1611;49.394;11.136;2022-10-22T14:39:56;17.00;57.40
3198;DHT22;1611;49.394;11.136;2022-10-22T14:42:27;17.00;58.40
3198;DHT22;1611;49.394;11.136;2022-10-22T14:44:54;17.00;58.90
3198;DHT22;1611;49.394;11.136;2022-10-22T14:47:21;16.90;58.70
3198;DHT22;1611;49.394;11.136;2022-10-22T14:49:48;16.80;59.10
3198;DHT22;1611;49.394;11.136;2022-10-22T14:52:16;16.80;58.70
3198;DHT22;1611;49.394;11.136;2022-10-22T14:54:44;16.80;59.10
3198;DHT22;1611;49.394;11.136;2022-10-22T14:57:13;16.70;58.80
3198;DHT22;1611;49.394;11.136;2022-10-22T14:59:41;16.60;59.20
3198;DHT22;1611;49.394;11.136;2022-10-22T15:02:10;16.60;59.50
3198;DHT22;1611;49.394;11.136;2022-10-22T15:04:37;16.60;59.90
3198;DHT22;1611;49.394;11.136;2022-10-22T15:07:04;16.50;60.10
3198;DHT22;1611;49.394;11.136;2022-10-22T15:09:33;16.50;61.00
3198;DHT22;1611;49.394;11.136;2022-10-22T15:11:59;16.40;61.60
3198;DHT22;1611;49.394;11.136;2022-10-22T15:14:26;16.40;62.20
3198;DHT22;1611;49.394;11.136;2022-10-22T15:16:53;16.30;62.90
3198;DHT22;1611;49.394;11.136;2022-10-22T15:19:20;16.30;63.30
3198;DHT22;1611;49.394;11.136;2022-10-22T15:21:46;16.20;64.00
3198;DHT22;1611;49.394;11.136;2022-10-22T15:24:13;16.30;64.40
3198;DHT22;1611;49.394;11.136;2022-10-22T15:26:41;16.20;64.50
3198;DHT22;1611;49.394;11.136;2022-10-22T15:29:08;16.20;64.90
3198;DHT22;1611;49.394;11.136;2022-10-22T15:31:46;16.20;65.00
3198;DHT22;1611;49.394;11.136;2022-10-22T15:34:17;16.20;64.90
3198;DHT22;1611;49.394;11.136;2022-10-22T15:36:45;16.20;64.70
3198;DHT22;1611;49.394;11.136;2022-10-22T15:39:12;16.20;65.30
3198;DHT22;1611;49.394;11.136;2022-10-22T15:41:38;16.30;66.00
3198;DHT22;1611;49.394;11.136;2022-10-22T15:44:07;16.20;66.20
3198;DHT22;1611;49.394;11.136;2022-10-22T15:46:35;16.10;67.10
3198;DHT22;1611;49.394;11.136;2022-10-22T15:49:01;16.10;67.20
3198;DHT22;1611;49.394;11.136;2022-10-22T15:51:28;16.10;67.30
3198;DHT22;1611;49.394;11.136;2022-10-22T15:53:57;16.00;67.40
3198;DHT22;1611;49.394;11.136;2022-10-22T15:56:26;15.90;68.10
3198;DHT22;1611;49.394;11.136;2022-10-22T15:58:53;15.90;68.10
3198;DHT22;1611;49.394;11.136;2022-10-22T16:01:22;15.80;68.40
3198;DHT22;1611;49.394;11.136;2022-10-22T16:03:50;15.70;68.80
3198;DHT22;1611;49.394;11.136;2022-10-22T16:06:24;15.60;69.20